createdAt,value
2018-11-07T00:01:20.147Z,10.90
2018-11-07T00:03:48.322Z,10.80
2018-11-07T00:06:16.492Z,10.80
2018-11-07T00:08:44.564Z,10.70
2018-11-07T00:11:12.675Z,10.60
2018-11-07T00:13:40.757Z,10.60
2018-11-07T00:16:08.847Z,10.60
2018-11-07T00:18:36.930Z,10.50
2018-11-07T00:21:05.171Z,10.50
2018-11-07T00:23:33.287Z,10.60
2018-11-07T00:26:01.428Z,10.70
2018-11-07T00:28:29.524Z,10.70
2018-11-07T00:30:57.595Z,10.60
2018-11-07T00:33:25.666Z,10.60
2018-11-07T00:35:53.744Z,10.70
2018-11-07T00:38:21.888Z,10.70
2018-11-07T00:40:50.004Z,10.60
2018-11-07T00:43:18.084Z,10.50
2018-11-07T00:45:46.172Z,10.50
2018-11-07T00:48:14.265Z,10.60
2018-11-07T00:50:42.365Z,10.60
2018-11-07T00:53:10.450Z,10.50
2018-11-07T00:55:38.554Z,10.60
2018-11-07T00:58:06.679Z,10.70
2018-11-07T01:00:34.688Z,10.60
2018-11-07T01:03:02.744Z,10.50
2018-11-07T01:05:30.819Z,10.40
2018-11-07T01:07:58.897Z,10.40
2018-11-07T01:10:26.964Z,10.40
2018-11-07T01:12:55.040Z,10.30
2018-11-07T01:15:23.152Z,10.30
2018-11-07T01:17:51.302Z,10.30
2018-11-07T01:20:19.427Z,10.30
2018-11-07T01:22:47.520Z,10.20
2018-11-07T01:25:15.591Z,10.10
2018-11-07T01:27:43.682Z,10.10
2018-11-07T01:30:13.143Z,10.00
2018-11-07T01:32:41.419Z,10.10
2018-11-07T01:35:09.810Z,10.10
2018-11-07T01:37:38.107Z,10.10
2018-11-07T01:40:09.501Z,10.00
2018-11-07T01:42:37.648Z,10.00
2018-11-07T01:45:06.858Z,10.10
2018-11-07T01:47:34.913Z,10.10
2018-11-07T01:50:03.040Z,10.20
2018-11-07T01:52:31.122Z,10.20
2018-11-07T01:54:59.215Z,10.10
2018-11-07T01:57:27.313Z,10.10
2018-11-07T01:59:55.378Z,10.00
2018-11-07T02:02:23.525Z,10.00
2018-11-07T02:04:51.645Z,10.00
2018-11-07T02:07:19.732Z,10.00
2018-11-07T02:09:47.797Z,10.10
2018-11-07T02:12:15.939Z,10.00
2018-11-07T02:14:44.064Z,10.00
2018-11-07T02:17:12.131Z,9.90
2018-11-07T02:19:40.490Z,9.90
2018-11-07T02:22:08.563Z,9.90
2018-11-07T02:24:36.652Z,9.80
2018-11-07T02:27:04.838Z,9.80
2018-11-07T02:29:32.884Z,9.90
2018-11-07T02:32:00.956Z,9.80
2018-11-07T02:34:29.025Z,9.80
2018-11-07T02:36:57.173Z,9.90
2018-11-07T02:39:25.245Z,9.90
2018-11-07T02:41:53.466Z,9.80
2018-11-07T02:44:21.447Z,9.80
2018-11-07T02:46:49.517Z,9.80
2018-11-07T02:49:17.642Z,9.80
2018-11-07T02:51:45.726Z,10.00
2018-11-07T02:54:13.830Z,9.90
2018-11-07T02:56:41.924Z,9.90
2018-11-07T02:59:09.989Z,9.90
2018-11-07T03:01:38.052Z,9.90
2018-11-07T03:04:06.148Z,9.90
2018-11-07T03:06:34.234Z,9.80
2018-11-07T03:09:02.297Z,9.80
2018-11-07T03:11:30.611Z,9.80
2018-11-07T03:13:59.238Z,9.80
2018-11-07T03:16:27.372Z,9.90
2018-11-07T03:18:55.435Z,9.70
2018-11-07T03:21:23.488Z,9.70
2018-11-07T03:23:51.578Z,9.60
2018-11-07T03:26:19.711Z,9.60
2018-11-07T03:28:47.817Z,9.70
2018-11-07T03:31:15.998Z,9.70
2018-11-07T03:33:44.087Z,9.70
2018-11-07T03:36:12.155Z,9.70
2018-11-07T03:38:40.278Z,9.70
2018-11-07T03:41:08.401Z,9.80
2018-11-07T03:43:36.498Z,9.70
2018-11-07T03:46:04.619Z,9.60
2018-11-07T03:48:32.832Z,9.70
2018-11-07T03:51:01.506Z,9.70
2018-11-07T03:53:29.583Z,9.70
2018-11-07T03:55:57.751Z,9.70
2018-11-07T03:58:25.821Z,9.70
2018-11-07T04:00:53.888Z,9.80
2018-11-07T04:03:21.994Z,9.80
2018-11-07T04:05:50.156Z,9.70
2018-11-07T04:08:18.253Z,9.70
2018-11-07T04:10:46.418Z,9.70
2018-11-07T04:13:14.532Z,9.60
2018-11-07T04:15:42.641Z,9.60
2018-11-07T04:18:17.206Z,9.60
2018-11-07T04:20:45.299Z,9.60
2018-11-07T04:23:13.386Z,9.60
2018-11-07T04:25:41.459Z,9.60
2018-11-07T04:28:09.617Z,9.50
2018-11-07T04:30:37.733Z,9.50
2018-11-07T04:33:05.809Z,9.50
2018-11-07T04:35:33.890Z,9.50
2018-11-07T04:38:01.981Z,9.50
2018-11-07T04:40:36.896Z,9.40
2018-11-07T04:43:05.263Z,9.50
2018-11-07T04:45:33.330Z,9.50
2018-11-07T04:48:01.393Z,9.40
2018-11-07T04:50:29.447Z,9.40
2018-11-07T04:52:57.533Z,9.40
2018-11-07T04:55:25.632Z,9.40
2018-11-07T04:57:53.686Z,9.40
2018-11-07T05:00:21.780Z,9.40
2018-11-07T05:02:49.802Z,9.40
2018-11-07T05:05:17.874Z,9.40
2018-11-07T05:07:46.052Z,9.30
2018-11-07T05:10:14.112Z,9.20
2018-11-07T05:12:42.203Z,9.20
2018-11-07T05:15:10.795Z,9.10
2018-11-07T05:17:38.897Z,9.20
2018-11-07T05:20:08.550Z,9.20
2018-11-07T05:22:36.719Z,9.20
2018-11-07T05:25:05.196Z,9.20
2018-11-07T05:27:33.255Z,9.20
2018-11-07T05:30:01.377Z,9.20
2018-11-07T05:32:29.463Z,9.20
2018-11-07T05:34:57.539Z,9.20
2018-11-07T05:37:25.614Z,9.20
2018-11-07T05:39:53.678Z,9.20
2018-11-07T05:42:21.748Z,9.10
2018-11-07T05:44:49.913Z,9.10
2018-11-07T05:47:18.107Z,9.10
2018-11-07T05:49:46.223Z,9.00
2018-11-07T05:52:14.404Z,9.10
2018-11-07T05:54:42.517Z,9.10
2018-11-07T05:57:10.617Z,9.10
2018-11-07T05:59:38.710Z,9.10
2018-11-07T06:02:06.821Z,9.10
2018-11-07T06:04:34.903Z,9.10
2018-11-07T06:07:02.996Z,8.90
2018-11-07T06:09:32.200Z,8.90
2018-11-07T06:12:00.278Z,8.90
2018-11-07T06:14:28.443Z,9.00
2018-11-07T06:16:56.532Z,9.00
2018-11-07T06:19:24.616Z,9.00
2018-11-07T06:21:59.783Z,9.00
2018-11-07T06:24:28.032Z,9.00
2018-11-07T06:26:56.047Z,9.00
2018-11-07T06:29:24.418Z,9.00
2018-11-07T06:31:52.505Z,9.00
2018-11-07T06:34:20.615Z,9.00
2018-11-07T06:36:48.706Z,9.00
2018-11-07T06:39:16.800Z,9.10
2018-11-07T06:41:44.884Z,9.00
2018-11-07T06:44:12.994Z,9.00
2018-11-07T06:46:41.092Z,9.00
2018-11-07T06:49:09.435Z,9.00
2018-11-07T06:51:37.762Z,9.00
2018-11-07T06:54:05.837Z,9.00
2018-11-07T06:56:33.951Z,9.10
2018-11-07T06:59:02.096Z,9.10
2018-11-07T07:01:30.265Z,9.10
2018-11-07T07:03:58.276Z,9.20
2018-11-07T07:06:26.420Z,9.20
2018-11-07T07:08:54.475Z,9.10
2018-11-07T07:11:22.562Z,9.20
2018-11-07T07:13:50.634Z,9.20
2018-11-07T07:16:18.772Z,9.20
2018-11-07T07:18:46.901Z,9.30
2018-11-07T07:21:14.986Z,9.20
2018-11-07T07:23:43.127Z,9.30
2018-11-07T07:26:11.209Z,9.40
2018-11-07T07:28:39.283Z,9.40
2018-11-07T07:31:07.373Z,9.40
2018-11-07T07:33:35.519Z,9.30
2018-11-07T07:36:03.530Z,9.40
2018-11-07T07:38:31.579Z,9.40
2018-11-07T07:40:59.709Z,9.50
2018-11-07T07:43:27.804Z,9.60
2018-11-07T07:45:55.888Z,9.50
2018-11-07T07:48:23.960Z,9.60
2018-11-07T07:50:52.068Z,9.60
2018-11-07T07:53:20.269Z,9.70
2018-11-07T07:55:48.449Z,9.80
2018-11-07T07:58:16.563Z,9.90
2018-11-07T08:00:44.646Z,10.00
2018-11-07T08:03:12.734Z,10.00
2018-11-07T08:05:40.839Z,10.10
2018-11-07T08:08:09.037Z,10.20
2018-11-07T08:10:37.152Z,10.20
2018-11-07T08:13:05.388Z,10.30
2018-11-07T08:15:33.483Z,10.30
2018-11-07T08:18:01.589Z,10.30
2018-11-07T08:20:29.648Z,10.30
2018-11-07T08:22:57.710Z,10.40
2018-11-07T08:25:25.794Z,10.50
2018-11-07T08:27:53.976Z,10.60
2018-11-07T08:30:22.332Z,10.60
2018-11-07T08:32:50.966Z,10.70
2018-11-07T08:35:19.064Z,10.80
2018-11-07T08:37:47.486Z,10.80
2018-11-07T08:40:17.918Z,10.90
2018-11-07T08:42:46.045Z,10.90
2018-11-07T08:45:14.351Z,11.00
2018-11-07T08:47:43.138Z,11.00
2018-11-07T08:50:13.361Z,11.10
2018-11-07T08:52:41.847Z,11.20
2018-11-07T08:55:12.443Z,11.30
2018-11-07T08:57:40.600Z,11.40
2018-11-07T09:00:12.095Z,11.50
2018-11-07T09:02:40.696Z,11.60
2018-11-07T09:05:09.279Z,11.70
2018-11-07T09:07:37.448Z,11.70
2018-11-07T09:10:06.995Z,11.80
2018-11-07T09:12:35.091Z,11.80
2018-11-07T09:15:03.200Z,11.90
2018-11-07T09:17:31.301Z,11.90
2018-11-07T09:19:59.478Z,12.00
2018-11-07T09:22:27.551Z,12.10
2018-11-07T09:24:55.613Z,12.20
2018-11-07T09:27:23.980Z,12.30
2018-11-07T09:29:52.045Z,12.30
2018-11-07T09:32:20.217Z,12.40
2018-11-07T09:34:48.352Z,12.50
2018-11-07T09:37:16.564Z,12.60
2018-11-07T09:39:44.745Z,12.50
2018-11-07T09:42:12.855Z,12.50
2018-11-07T09:44:40.947Z,12.60
2018-11-07T09:47:09.119Z,12.70
2018-11-07T09:49:37.277Z,12.70
2018-11-07T09:52:05.590Z,12.70
2018-11-07T09:54:33.674Z,12.80
2018-11-07T09:57:02.040Z,12.90
2018-11-07T09:59:30.280Z,12.90
2018-11-07T10:01:58.500Z,13.00
2018-11-07T10:04:26.592Z,13.10
2018-11-07T10:06:54.705Z,13.00
2018-11-07T10:09:22.762Z,13.10
2018-11-07T10:11:50.873Z,13.10
2018-11-07T10:14:18.953Z,13.20
2018-11-07T10:16:47.025Z,13.20
2018-11-07T10:19:15.097Z,13.20
2018-11-07T10:21:43.212Z,13.40
2018-11-07T10:24:11.334Z,13.40
2018-11-07T10:26:39.537Z,13.50
2018-11-07T10:29:07.741Z,13.60
2018-11-07T10:31:35.692Z,13.60
2018-11-07T10:34:03.794Z,13.70
2018-11-07T10:36:31.895Z,13.70
2018-11-07T10:39:00.128Z,13.80
2018-11-07T10:41:28.116Z,13.80
2018-11-07T10:43:56.217Z,13.70
2018-11-07T10:46:24.468Z,13.80
2018-11-07T10:48:52.570Z,13.80
2018-11-07T10:51:20.682Z,13.80
2018-11-07T10:53:48.829Z,13.80
2018-11-07T10:56:16.887Z,13.90
2018-11-07T10:58:44.979Z,14.00
2018-11-07T11:01:18.582Z,14.10
2018-11-07T11:03:46.692Z,14.20
2018-11-07T11:06:14.830Z,14.20
2018-11-07T11:08:42.966Z,14.30
2018-11-07T11:11:11.134Z,14.50
2018-11-07T11:13:39.244Z,14.50
2018-11-07T11:16:07.349Z,14.50
2018-11-07T11:18:35.431Z,14.60
2018-11-07T11:21:03.511Z,14.70
2018-11-07T11:23:31.615Z,14.70
2018-11-07T11:25:59.775Z,14.70
2018-11-07T11:28:27.807Z,14.80
2018-11-07T11:30:56.257Z,14.80
2018-11-07T11:33:24.346Z,14.80
2018-11-07T11:35:52.418Z,15.00
2018-11-07T11:38:20.546Z,15.00
2018-11-07T11:40:48.626Z,15.10
2018-11-07T11:43:16.717Z,15.10
2018-11-07T11:45:44.826Z,15.10
2018-11-07T11:48:12.940Z,15.10
2018-11-07T11:50:41.055Z,15.10
2018-11-07T11:53:09.115Z,15.00
2018-11-07T11:55:37.197Z,14.90
2018-11-07T11:58:05.571Z,15.00
2018-11-07T12:00:33.777Z,15.10
2018-11-07T12:03:01.775Z,15.20
2018-11-07T12:05:29.894Z,15.20
2018-11-07T12:07:57.939Z,15.20
2018-11-07T12:10:26.719Z,15.30
2018-11-07T12:12:57.516Z,15.40
2018-11-07T12:15:26.806Z,15.40
2018-11-07T12:17:55.259Z,15.40
2018-11-07T12:20:23.347Z,15.50
2018-11-07T12:22:51.502Z,15.50
2018-11-07T12:25:20.404Z,15.40
2018-11-07T12:27:48.516Z,15.50
2018-11-07T12:30:22.068Z,15.60
2018-11-07T12:32:51.257Z,15.60
2018-11-07T12:35:19.861Z,15.60
2018-11-07T12:37:48.112Z,15.60
2018-11-07T12:40:16.544Z,15.50
2018-11-07T12:42:44.641Z,15.60
2018-11-07T12:45:13.897Z,15.60
2018-11-07T12:47:42.163Z,15.70
2018-11-07T12:50:12.916Z,15.70
2018-11-07T12:52:41.072Z,15.60
2018-11-07T12:55:10.884Z,15.50
2018-11-07T12:57:39.134Z,15.50
2018-11-07T13:00:12.406Z,15.50
2018-11-07T13:02:40.523Z,15.50
2018-11-07T13:05:09.758Z,15.50
2018-11-07T13:07:37.853Z,15.50
2018-11-07T13:10:08.345Z,15.50
2018-11-07T13:12:36.469Z,15.50
2018-11-07T13:15:05.501Z,15.50
2018-11-07T13:17:33.609Z,15.50
2018-11-07T13:20:01.705Z,15.50
2018-11-07T13:22:29.843Z,15.40
2018-11-07T13:24:57.904Z,15.40
2018-11-07T13:27:26.190Z,15.40
2018-11-07T13:29:54.277Z,15.40
2018-11-07T13:32:22.437Z,15.30
2018-11-07T13:34:50.679Z,15.30
2018-11-07T13:37:18.913Z,15.30
2018-11-07T13:39:47.038Z,15.30
2018-11-07T13:42:15.122Z,15.30
2018-11-07T13:44:43.186Z,15.20
2018-11-07T13:47:11.368Z,15.10
2018-11-07T13:49:39.497Z,15.10
2018-11-07T13:52:07.973Z,15.10
2018-11-07T13:54:36.084Z,15.10
2018-11-07T13:57:04.171Z,15.00
2018-11-07T13:59:32.303Z,14.90
2018-11-07T14:02:00.515Z,14.90
2018-11-07T14:04:28.564Z,14.90
2018-11-07T14:06:56.649Z,14.80
2018-11-07T14:09:24.738Z,14.80
2018-11-07T14:11:53.085Z,14.80
2018-11-07T14:14:21.179Z,14.80
2018-11-07T14:16:49.322Z,14.80
2018-11-07T14:19:17.502Z,14.80
2018-11-07T14:21:45.907Z,14.70
2018-11-07T14:24:14.006Z,14.70
2018-11-07T14:26:42.195Z,14.80
2018-11-07T14:29:10.263Z,14.80
2018-11-07T14:31:38.455Z,14.80
2018-11-07T14:34:06.715Z,14.80
2018-11-07T14:36:34.796Z,14.70
2018-11-07T14:39:03.365Z,14.70
2018-11-07T14:41:31.763Z,14.70
2018-11-07T14:43:59.958Z,14.70
2018-11-07T14:46:28.030Z,14.70
2018-11-07T14:48:56.056Z,14.70
2018-11-07T14:51:24.179Z,14.70
2018-11-07T14:53:52.421Z,14.70
2018-11-07T14:56:20.542Z,14.60
2018-11-07T14:58:48.625Z,14.60
2018-11-07T15:01:16.700Z,14.50
2018-11-07T15:03:45.053Z,14.50
2018-11-07T15:06:13.514Z,14.50
2018-11-07T15:08:41.518Z,14.40
2018-11-07T15:11:09.635Z,14.40
2018-11-07T15:13:37.708Z,14.30
2018-11-07T15:16:05.856Z,14.20
2018-11-07T15:18:33.950Z,14.20
2018-11-07T15:21:02.115Z,14.20
2018-11-07T15:23:30.207Z,14.10
2018-11-07T15:25:58.302Z,14.10
2018-11-07T15:31:01.068Z,13.90
2018-11-07T15:33:29.234Z,13.80
2018-11-07T15:35:57.367Z,13.70
2018-11-07T15:38:25.438Z,13.60
2018-11-07T15:40:53.635Z,13.40
2018-11-07T15:43:21.823Z,13.40
2018-11-07T15:45:49.843Z,13.30
2018-11-07T15:48:17.929Z,13.40
2018-11-07T15:50:51.467Z,13.50
2018-11-07T15:53:19.671Z,13.60
2018-11-07T15:55:47.751Z,13.70
2018-11-07T15:58:15.858Z,13.70
2018-11-07T16:00:43.964Z,13.60
2018-11-07T16:03:12.051Z,13.50
2018-11-07T16:05:40.175Z,13.40
2018-11-07T16:08:08.268Z,13.30
2018-11-07T16:10:36.455Z,13.30
2018-11-07T16:13:04.563Z,13.30
2018-11-07T16:15:32.794Z,13.30
2018-11-07T16:18:01.129Z,13.30
2018-11-07T16:20:29.222Z,13.30
2018-11-07T16:22:57.399Z,13.20
2018-11-07T16:25:25.445Z,13.10
2018-11-07T16:27:53.528Z,13.10
2018-11-07T16:30:21.629Z,13.00
2018-11-07T16:32:49.711Z,13.00
2018-11-07T16:35:17.826Z,12.90
2018-11-07T16:37:45.982Z,12.80
2018-11-07T16:40:15.453Z,12.80
2018-11-07T16:42:44.187Z,12.70
2018-11-07T16:45:13.516Z,12.60
2018-11-07T16:47:42.268Z,12.70
2018-11-07T16:50:13.472Z,12.60
2018-11-07T16:52:41.940Z,12.60
2018-11-07T16:55:10.011Z,12.50
2018-11-07T16:57:38.707Z,12.40
2018-11-07T17:00:11.924Z,12.20
2018-11-07T17:02:40.330Z,12.10
2018-11-07T17:05:08.799Z,12.10
2018-11-07T17:07:36.912Z,12.10
2018-11-07T17:10:05.924Z,12.10
2018-11-07T17:12:34.077Z,12.00
2018-11-07T17:15:02.208Z,11.90
2018-11-07T17:17:30.316Z,11.80
2018-11-07T17:19:58.414Z,11.70
2018-11-07T17:22:26.932Z,11.80
2018-11-07T17:24:55.013Z,11.80
2018-11-07T17:27:23.253Z,11.90
2018-11-07T17:29:51.419Z,11.90
2018-11-07T17:32:19.714Z,11.80
2018-11-07T17:34:47.983Z,11.70
2018-11-07T17:37:16.113Z,11.60
2018-11-07T17:39:44.420Z,11.50
2018-11-07T17:42:13.076Z,11.40
2018-11-07T17:44:41.340Z,11.30
2018-11-07T17:47:09.432Z,11.30
2018-11-07T17:49:37.500Z,11.20
2018-11-07T17:52:07.251Z,11.10
2018-11-07T17:54:35.328Z,11.10
2018-11-07T17:57:03.429Z,11.10
2018-11-07T17:59:31.612Z,11.10
2018-11-07T18:01:59.704Z,11.10
2018-11-07T18:04:28.074Z,11.00
2018-11-07T18:06:56.150Z,11.10
2018-11-07T18:09:24.297Z,11.20
2018-11-07T18:11:52.389Z,11.30
2018-11-07T18:14:20.500Z,11.30
2018-11-07T18:16:48.637Z,11.20
2018-11-07T18:19:16.805Z,11.20
2018-11-07T18:21:44.875Z,11.20
2018-11-07T18:24:13.131Z,11.30
2018-11-07T18:26:41.427Z,11.30
2018-11-07T18:29:09.693Z,11.30
2018-11-07T18:31:37.833Z,11.20
2018-11-07T18:34:06.023Z,11.20
2018-11-07T18:36:34.100Z,11.30
2018-11-07T18:39:02.232Z,11.30
2018-11-07T18:41:30.419Z,11.30
2018-11-07T18:43:58.851Z,11.20
2018-11-07T18:46:26.960Z,11.10
2018-11-07T18:48:55.032Z,11.10
2018-11-07T18:51:23.101Z,11.10
2018-11-07T18:53:51.442Z,11.20
2018-11-07T18:56:19.567Z,11.20
2018-11-07T18:58:47.815Z,11.10
2018-11-07T19:01:15.895Z,11.10
2018-11-07T19:03:44.154Z,11.10
2018-11-07T19:06:12.309Z,11.00
2018-11-07T19:08:40.415Z,11.00
2018-11-07T19:11:08.530Z,11.00
2018-11-07T19:13:36.620Z,10.90
2018-11-07T19:16:04.716Z,10.90
2018-11-07T19:18:32.826Z,10.90
2018-11-07T19:21:00.991Z,10.90
2018-11-07T19:23:29.063Z,10.90
2018-11-07T19:25:57.218Z,10.90
2018-11-07T19:28:25.296Z,10.80
2018-11-07T19:30:53.381Z,10.80
2018-11-07T19:33:21.464Z,10.70
2018-11-07T19:35:49.597Z,10.70
2018-11-07T19:38:17.791Z,10.60
2018-11-07T19:40:45.893Z,10.60
2018-11-07T19:43:13.984Z,10.60
2018-11-07T19:45:42.116Z,10.50
2018-11-07T19:48:10.572Z,10.50
2018-11-07T19:50:38.689Z,10.40
2018-11-07T19:53:06.795Z,10.40
2018-11-07T19:55:34.894Z,10.40
2018-11-07T19:58:03.001Z,10.30
2018-11-07T20:00:31.081Z,10.20
2018-11-07T20:02:59.185Z,10.20
2018-11-07T20:05:27.342Z,10.10
2018-11-07T20:07:55.533Z,10.10
2018-11-07T20:10:23.758Z,10.10
2018-11-07T20:12:51.833Z,10.20
2018-11-07T20:15:20.711Z,10.30
2018-11-07T20:17:49.081Z,10.30
2018-11-07T20:20:17.392Z,10.30
2018-11-07T20:22:45.598Z,10.30
2018-11-07T20:25:14.331Z,10.20
2018-11-07T20:27:42.707Z,10.20
2018-11-07T20:32:34.859Z,10.20
2018-11-07T20:35:02.962Z,10.20
2018-11-07T20:37:31.119Z,10.10
2018-11-07T20:39:59.205Z,10.00
2018-11-07T20:42:27.303Z,9.90
2018-11-07T20:44:55.425Z,9.90
2018-11-07T20:47:23.537Z,9.80
2018-11-07T20:49:51.621Z,9.80
2018-11-07T20:52:19.750Z,9.80
2018-11-07T20:54:47.889Z,9.80
2018-11-07T20:57:16.000Z,9.70
2018-11-07T20:59:44.173Z,9.80
2018-11-07T21:02:12.258Z,9.80
2018-11-07T21:04:40.366Z,9.90
2018-11-07T21:07:08.482Z,10.00
2018-11-07T21:09:36.558Z,9.90
2018-11-07T21:12:05.201Z,9.80
2018-11-07T21:14:33.435Z,9.80
2018-11-07T21:17:01.620Z,9.80
2018-11-07T21:19:29.638Z,9.80
2018-11-07T21:21:57.780Z,9.80
2018-11-07T21:24:25.845Z,9.70
2018-11-07T21:26:53.995Z,9.70
2018-11-07T21:29:22.117Z,9.60
2018-11-07T21:31:50.218Z,9.60
2018-11-07T21:34:18.304Z,9.60
2018-11-07T21:36:46.588Z,9.60
2018-11-07T21:39:14.805Z,9.50
2018-11-07T21:41:42.869Z,9.50
2018-11-07T21:44:10.984Z,9.50
2018-11-07T21:46:39.089Z,9.60
2018-11-07T21:49:07.314Z,9.50
2018-11-07T21:51:35.388Z,9.40
2018-11-07T21:54:03.442Z,9.40
2018-11-07T21:56:31.947Z,9.50
2018-11-07T21:59:00.061Z,9.50
2018-11-07T22:01:28.174Z,9.60
2018-11-07T22:03:56.215Z,9.60
2018-11-07T22:06:24.283Z,9.60
2018-11-07T22:08:52.642Z,9.60
2018-11-07T22:11:20.753Z,9.60
2018-11-07T22:13:48.846Z,9.60
2018-11-07T22:16:16.920Z,9.50
2018-11-07T22:18:44.999Z,9.50
2018-11-07T22:21:13.095Z,9.50
2018-11-07T22:23:41.316Z,9.50
2018-11-07T22:26:09.416Z,9.50
2018-11-07T22:28:37.468Z,9.40
2018-11-07T22:31:05.935Z,9.30
2018-11-07T22:33:34.723Z,9.20
2018-11-07T22:36:02.820Z,9.20
2018-11-07T22:38:30.911Z,9.30
2018-11-07T22:40:59.002Z,9.30
2018-11-07T22:43:27.099Z,9.20
2018-11-07T22:45:55.202Z,9.20
2018-11-07T22:48:23.259Z,9.30
2018-11-07T22:50:51.403Z,9.30
2018-11-07T22:53:19.547Z,9.30
2018-11-07T22:55:47.602Z,9.40
2018-11-07T22:58:15.717Z,9.30
2018-11-07T23:00:49.367Z,9.30
2018-11-07T23:03:17.483Z,9.40
2018-11-07T23:05:45.550Z,9.40
2018-11-07T23:08:13.659Z,9.40
2018-11-07T23:10:41.772Z,9.30
2018-11-07T23:13:09.836Z,9.30
2018-11-07T23:15:43.402Z,9.30
2018-11-07T23:18:11.504Z,9.30
2018-11-07T23:20:39.589Z,9.20
2018-11-07T23:23:07.699Z,9.20
2018-11-07T23:25:35.806Z,9.20
2018-11-07T23:28:03.886Z,9.20
2018-11-07T23:30:32.000Z,9.20
2018-11-07T23:33:00.116Z,9.20
2018-11-07T23:35:28.181Z,9.30
2018-11-07T23:37:56.314Z,9.20
2018-11-07T23:40:24.385Z,9.20
2018-11-07T23:42:52.487Z,9.20
2018-11-07T23:45:20.533Z,9.20
2018-11-07T23:47:48.662Z,9.10
2018-11-07T23:50:16.799Z,9.10
2018-11-07T23:52:46.953Z,9.10
2018-11-07T23:55:15.793Z,9.10
2018-11-07T23:57:43.948Z,9.00
